Time,TemperatureF,DewpointF,PressureIn,WindDirection,WindDirectionDegrees,WindSpeedMPH,WindSpeedGustMPH,Humidity,HourlyPrecipIn,Conditions,Clouds,dailyrainin,SoftwareType,DateUTC
2013-01-21 00:00:00,8.6,-7.1,0.00,SSE,153,2.7,2.7,48,0.00,,---,0.00,VWS V14.01,2013-01-21 05:00:00,
2013-01-21 00:02:00,8.6,-7.1,0.00,SSE,153,2.7,2.7,48,0.00,,---,0.00,VWS V14.01,2013-01-21 05:02:00,
2013-01-21 00:03:00,8.8,-6.9,0.00,SSE,153,2.7,2.7,48,0.00,,---,0.00,VWS V14.01,2013-01-21 05:03:00,
2013-01-21 00:08:00,8.6,-7.1,0.00,North,0,2.7,2.7,48,0.00,,---,0.00,VWS V14.01,2013-01-21 05:08:00,
2013-01-21 00:13:00,8.4,-7.2,0.00,SW,228,6.3,6.3,48,0.00,,---,0.00,VWS V14.01,2013-01-21 05:13:00,
2013-01-21 00:18:00,8.4,-7.2,0.00,SW,228,6.3,6.3,48,0.00,,---,0.00,VWS V14.01,2013-01-21 05:18:00,
2013-01-21 00:23:00,8.4,-7.2,0.00,SE,130,0.0,0.0,48,0.00,,---,0.00,VWS V14.01,2013-01-21 05:23:00,
2013-01-21 00:28:00,8.2,-7.4,0.00,South,179,5.8,5.8,48,0.00,,---,0.00,VWS V14.01,2013-01-21 05:28:00,
2013-01-21 00:33:00,8.4,-7.2,0.00,WNW,288,0.0,0.0,48,0.00,,---,0.00,VWS V14.01,2013-01-21 05:33:00,
2013-01-21 00:39:00,8.1,-7.6,0.00,NNW,341,3.6,3.6,48,0.00,,---,0.00,VWS V14.01,2013-01-21 05:39:00,
2013-01-21 00:44:00,8.1,-7.6,0.00,SW,219,0.0,0.0,48,0.00,,---,0.00,VWS V14.01,2013-01-21 05:44:00,
2013-01-21 00:49:00,7.7,-7.9,0.00,SSE,166,2.2,2.2,48,0.00,,---,0.00,VWS V14.01,2013-01-21 05:49:00,
2013-01-21 00:54:00,8.1,-7.6,0.00,SE,125,0.0,0.0,48,0.00,,---,0.00,VWS V14.01,2013-01-21 05:54:00,
2013-01-21 00:59:00,7.9,-7.7,0.00,SSE,151,0.0,0.0,48,0.00,,---,0.00,VWS V14.01,2013-01-21 05:59:00,
2013-01-21 01:04:00,7.9,-7.7,0.00,SSE,163,4.0,4.0,48,0.00,,---,0.00,VWS V14.01,2013-01-21 06:04:00,
2013-01-21 01:09:00,7.5,-8.1,0.00,SSE,163,4.0,4.0,48,0.00,,---,0.00,VWS V14.01,2013-01-21 06:09:00,
2013-01-21 01:14:00,7.7,-7.9,0.00,WSW,240,2.2,2.2,48,0.00,,---,0.00,VWS V14.01,2013-01-21 06:14:00,
2013-01-21 01:19:00,7.7,-7.9,0.00,WSW,240,2.2,2.2,48,0.00,,---,0.00,VWS V14.01,2013-01-21 06:19:00,
2013-01-21 01:24:00,7.7,-7.9,0.00,West,272,3.1,8.1,48,0.00,,---,0.00,VWS V14.01,2013-01-21 06:24:00,
2013-01-21 01:29:00,7.5,-8.1,0.00,West,272,3.1,3.1,48,0.00,,---,0.00,VWS V14.01,2013-01-21 06:29:00,
2013-01-21 01:34:00,7.5,-8.1,0.00,West,272,3.1,3.1,48,0.00,,---,0.00,VWS V14.01,2013-01-21 06:34:00,
2013-01-21 01:39:00,7.2,-8.4,0.00,NW,326,3.1,3.1,48,0.00,,---,0.00,VWS V14.01,2013-01-21 06:39:00,
2013-01-21 01:44:00,7.3,-8.2,0.00,NW,326,3.1,3.1,48,0.00,,---,0.00,VWS V14.01,2013-01-21 06:44:00,
2013-01-21 01:49:00,7.2,-8.4,0.00,NNE,17,3.6,3.6,48,0.00,,---,0.00,VWS V14.01,2013-01-21 06:49:00,
2013-01-21 01:54:00,7.2,-8.4,0.00,NNE,17,3.6,3.6,48,0.00,,---,0.00,VWS V14.01,2013-01-21 06:54:00,
2013-01-21 01:59:00,7.2,-8.4,0.00,NNE,17,3.6,3.6,48,0.00,,---,0.00,VWS V14.01,2013-01-21 06:59:00,
2013-01-21 02:04:00,7.2,-8.4,0.00,WNW,301,3.1,3.1,48,0.00,,---,0.00,VWS V14.01,2013-01-21 07:04:00,
2013-01-21 02:09:00,7.2,-8.4,0.00,West,271,0.0,0.0,48,0.00,,---,0.00,VWS V14.01,2013-01-21 07:09:00,
2013-01-21 02:14:00,7.0,-8.6,0.00,NNW,332,2.7,2.7,48,0.00,,---,0.00,VWS V14.01,2013-01-21 07:14:00,
2013-01-21 02:19:00,7.0,-8.6,0.00,SW,227,0.0,2.7,48,0.00,,---,0.00,VWS V14.01,2013-01-21 07:19:00,
2013-01-21 02:24:00,6.8,-8.7,0.00,SW,223,5.4,5.4,48,0.00,,---,0.00,VWS V14.01,2013-01-21 07:24:00,
2013-01-21 02:29:00,6.8,-8.7,0.00,SSE,147,0.0,0.0,48,0.00,,---,0.00,VWS V14.01,2013-01-21 07:29:00,
2013-01-21 02:34:00,6.4,-9.1,0.00,NE,38,0.0,0.0,48,0.00,,---,0.00,VWS V14.01,2013-01-21 07:34:00,
2013-01-21 02:39:00,6.4,-9.1,0.00,SSE,167,3.6,3.6,48,0.00,,---,0.00,VWS V14.01,2013-01-21 07:39:00,
2013-01-21 02:44:00,6.6,-8.9,0.00,SSE,167,3.6,3.6,48,0.00,,---,0.00,VWS V14.01,2013-01-21 07:44:00,
2013-01-21 02:49:00,6.4,-9.1,0.00,NNW,341,2.7,2.7,48,0.00,,---,0.00,VWS V14.01,2013-01-21 07:49:00,
2013-01-21 02:54:00,6.4,-9.1,0.00,SE,129,0.0,0.0,48,0.00,,---,0.00,VWS V14.01,2013-01-21 07:54:00,
2013-01-21 02:59:00,6.8,-8.7,0.00,SE,129,0.0,0.0,48,0.00,,---,0.00,VWS V14.01,2013-01-21 07:59:00,
2013-01-21 03:04:00,7.0,-8.6,0.00,NE,45,0.0,0.0,48,0.00,,---,0.00,VWS V14.01,2013-01-21 08:04:00,
2013-01-21 03:09:00,7.0,-8.6,0.00,ESE,123,0.0,0.0,48,0.00,,---,0.00,VWS V14.01,2013-01-21 08:09:00,
2013-01-21 03:14:00,6.6,-8.9,0.00,ESE,109,0.0,0.0,48,0.00,,---,0.00,VWS V14.01,2013-01-21 08:14:00,
2013-01-21 03:19:00,6.4,-9.1,0.00,ESE,109,0.0,0.0,48,0.00,,---,0.00,VWS V14.01,2013-01-21 08:19:00,
2013-01-21 03:24:00,6.1,-9.4,0.00,WSW,250,0.0,0.0,48,0.00,,---,0.00,VWS V14.01,2013-01-21 08:24:00,
2013-01-21 03:29:00,5.9,-9.6,0.00,East,101,0.0,0.0,48,0.00,,---,0.00,VWS V14.01,2013-01-21 08:29:00,
2013-01-21 03:34:00,5.9,-9.6,0.00,East,101,0.0,0.0,48,0.00,,---,0.00,VWS V14.01,2013-01-21 08:34:00,
2013-01-21 03:39:00,6.1,-9.4,0.00,East,85,0.0,0.0,48,0.00,,---,0.00,VWS V14.01,2013-01-21 08:39:00,
2013-01-21 03:44:00,6.1,-9.4,0.00,East,85,0.0,0.0,48,0.00,,---,0.00,VWS V14.01,2013-01-21 08:44:00,
2013-01-21 03:49:00,5.9,-9.6,0.00,SE,141,0.0,0.0,48,0.00,,---,0.00,VWS V14.01,2013-01-21 08:49:00,
2013-01-21 03:54:00,5.9,-9.6,0.00,ESE,106,0.0,0.0,48,0.00,,---,0.00,VWS V14.01,2013-01-21 08:54:00,
2013-01-21 03:59:00,5.9,-9.6,0.00,ESE,106,0.0,0.0,48,0.00,,---,0.00,VWS V14.01,2013-01-21 08:59:00,
2013-01-21 04:04:00,5.5,-9.9,0.00,SSW,197,0.0,0.0,48,0.00,,---,0.00,VWS V14.01,2013-01-21 09:04:00,
2013-01-21 04:09:00,5.4,-10.1,0.00,SSW,197,0.0,0.0,48,0.00,,---,0.00,VWS V14.01,2013-01-21 09:09:00,
2013-01-21 04:14:00,5.4,-10.1,0.00,ESE,103,0.0,0.0,48,0.00,,---,0.00,VWS V14.01,2013-01-21 09:14:00,
2013-01-21 04:19:00,5.2,-10.2,0.00,ENE,74,0.0,0.0,48,0.00,,---,0.00,VWS V14.01,2013-01-21 09:19:00,
2013-01-21 04:24:00,5.0,-10.4,0.00,ENE,74,0.0,0.0,48,0.00,,---,0.00,VWS V14.01,2013-01-21 09:24:00,
2013-01-21 04:29:00,4.8,-10.6,0.00,ENE,74,0.0,0.0,48,0.00,,---,0.00,VWS V14.01,2013-01-21 09:29:00,
2013-01-21 04:34:00,4.3,-11.1,0.00,ENE,74,0.0,0.0,48,0.00,,---,0.00,VWS V14.01,2013-01-21 09:34:00,
2013-01-21 04:39:00,3.9,-11.4,0.00,ENE,74,0.0,0.0,48,0.00,,---,0.00,VWS V14.01,2013-01-21 09:39:00,
2013-01-21 04:44:00,3.4,-11.9,0.00,ENE,74,0.0,0.0,48,0.00,,---,0.00,VWS V14.01,2013-01-21 09:44:00,
2013-01-21 04:49:00,3.2,-12.1,0.00,ENE,74,0.0,0.0,48,0.00,,---,0.00,VWS V14.01,2013-01-21 09:49:00,
2013-01-21 04:54:00,2.8,-12.4,0.00,ENE,74,0.0,0.0,48,0.00,,---,0.00,VWS V14.01,2013-01-21 09:54:00,
2013-01-21 04:59:00,2.3,-12.9,0.00,ENE,74,0.0,0.0,48,0.00,,---,0.00,VWS V14.01,2013-01-21 09:59:00,
2013-01-21 05:04:00,1.9,-13.2,0.00,ENE,74,0.0,0.0,48,0.00,,---,0.00,VWS V14.01,2013-01-21 10:04:00,
2013-01-21 05:09:00,1.6,-13.6,0.00,ENE,74,0.0,0.0,48,0.00,,---,0.00,VWS V14.01,2013-01-21 10:09:00,
2013-01-21 05:14:00,1.4,-13.7,0.00,ENE,74,0.0,0.0,48,0.00,,---,0.00,VWS V14.01,2013-01-21 10:14:00,
2013-01-21 05:19:00,1.0,-14.1,0.00,ENE,74,0.0,0.0,48,0.00,,---,0.00,VWS V14.01,2013-01-21 10:19:00,
2013-01-21 05:24:00,1.0,-14.1,0.00,ENE,74,0.0,0.0,48,0.00,,---,0.00,VWS V14.01,2013-01-21 10:24:00,
2013-01-21 05:29:00,0.9,-14.2,0.00,ENE,74,0.0,0.0,48,0.00,,---,0.00,VWS V14.01,2013-01-21 10:29:00,
2013-01-21 05:34:00,0.7,-14.4,0.00,ENE,74,0.0,0.0,48,0.00,,---,0.00,VWS V14.01,2013-01-21 10:34:00,
2013-01-21 05:39:00,0.3,-14.7,0.00,ENE,74,0.0,0.0,48,0.00,,---,0.00,VWS V14.01,2013-01-21 10:39:00,
2013-01-21 05:44:00,0.0,-15.1,0.00,ENE,74,0.0,0.0,48,0.00,,---,0.00,VWS V14.01,2013-01-21 10:44:00,
2013-01-21 05:49:00,-0.2,-15.2,0.00,ENE,74,0.0,0.0,48,0.00,,---,0.00,VWS V14.01,2013-01-21 10:49:00,
2013-01-21 05:54:00,-0.4,-15.4,0.00,ENE,74,0.0,0.0,48,0.00,,---,0.00,VWS V14.01,2013-01-21 10:54:00,
2013-01-21 05:59:00,-0.6,-15.6,0.00,ENE,74,0.0,0.0,48,0.00,,---,0.00,VWS V14.01,2013-01-21 10:59:00,
2013-01-21 06:04:00,-0.8,-15.7,0.00,ENE,74,0.0,0.0,48,0.00,,---,0.00,VWS V14.01,2013-01-21 11:04:00,
2013-01-21 06:09:00,-0.9,-15.9,0.00,ENE,74,0.0,0.0,48,0.00,,---,0.00,VWS V14.01,2013-01-21 11:09:00,
2013-01-21 06:14:00,-1.1,-16.1,0.00,ENE,74,0.0,0.0,48,0.00,,---,0.00,VWS V14.01,2013-01-21 11:14:00,
2013-01-21 06:19:00,-1.1,-16.1,0.00,ENE,74,0.0,0.0,48,0.00,,---,0.00,VWS V14.01,2013-01-21 11:19:00,
2013-01-21 06:24:00,-1.1,-16.1,0.00,ENE,74,0.0,0.0,48,0.00,,---,0.00,VWS V14.01,2013-01-21 11:24:00,
2013-01-21 06:29:00,-1.3,-16.2,0.00,ENE,74,0.0,0.0,48,0.00,,---,0.00,VWS V14.01,2013-01-21 11:29:00,
2013-01-21 06:34:00,-1.3,-16.2,0.00,ENE,74,0.0,0.0,48,0.00,,---,0.00,VWS V14.01,2013-01-21 11:34:00,
2013-01-21 06:39:00,-1.5,-16.4,0.00,ENE,74,0.0,0.0,48,0.00,,---,0.00,VWS V14.01,2013-01-21 11:39:00,
2013-01-21 06:44:00,-1.7,-16.6,0.00,ENE,74,0.0,0.0,48,0.00,,---,0.00,VWS V14.01,2013-01-21 11:44:00,
2013-01-21 06:49:00,-1.7,-16.6,0.00,ENE,74,0.0,0.0,48,0.00,,---,0.00,VWS V14.01,2013-01-21 11:49:00,
2013-01-21 06:54:00,-1.5,-16.4,0.00,ENE,74,0.0,0.0,48,0.00,,---,0.00,VWS V14.01,2013-01-21 11:54:00,
2013-01-21 06:59:00,-1.1,-16.1,0.00,ENE,74,0.0,0.0,48,0.00,,---,0.00,VWS V14.01,2013-01-21 11:59:00,
2013-01-21 07:04:00,-1.1,-16.1,0.00,ENE,74,0.0,0.0,48,0.00,,---,0.00,VWS V14.01,2013-01-21 12:04:00,
2013-01-21 07:09:00,-0.9,-15.9,0.00,ENE,74,0.0,0.0,48,0.00,,---,0.00,VWS V14.01,2013-01-21 12:09:00,
2013-01-21 07:14:00,-0.6,-15.6,0.00,ENE,74,0.0,0.0,48,0.00,,---,0.00,VWS V14.01,2013-01-21 12:14:00,
2013-01-21 07:19:00,-0.4,-15.4,0.00,ENE,74,0.0,0.0,48,0.00,,---,0.00,VWS V14.01,2013-01-21 12:19:00,
2013-01-21 07:24:00,-0.4,-15.4,0.00,ENE,74,0.0,0.0,48,0.00,,---,0.00,VWS V14.01,2013-01-21 12:24:00,
2013-01-21 07:29:00,0.0,-15.1,0.00,ENE,74,0.0,0.0,48,0.00,,---,0.00,VWS V14.01,2013-01-21 12:29:00,
2013-01-21 07:34:00,0.5,-14.6,0.00,ENE,74,0.0,0.0,48,0.00,,---,0.00,VWS V14.01,2013-01-21 12:34:00,
2013-01-21 07:39:00,1.2,-13.9,0.00,ENE,74,0.0,0.0,48,0.00,,---,0.00,VWS V14.01,2013-01-21 12:39:00,
2013-01-21 07:44:00,1.6,-13.6,0.00,ENE,74,0.0,0.0,48,0.00,,---,0.00,VWS V14.01,2013-01-21 12:44:00,
2013-01-21 07:49:00,1.9,-13.2,0.00,ENE,74,0.0,0.0,48,0.00,,---,0.00,VWS V14.01,2013-01-21 12:49:00,
2013-01-21 07:54:00,1.9,-13.2,0.00,ENE,74,0.0,0.0,48,0.00,,---,0.00,VWS V14.01,2013-01-21 12:54:00,
2013-01-21 07:59:00,2.5,-12.7,0.00,ENE,74,0.0,0.0,48,0.00,,---,0.00,VWS V14.01,2013-01-21 12:59:00,
2013-01-21 08:04:00,2.5,-12.7,0.00,ENE,74,0.0,0.0,48,0.00,,---,0.00,VWS V14.01,2013-01-21 13:04:00,
2013-01-21 08:09:00,3.0,-12.2,0.00,ENE,74,0.0,0.0,48,0.00,,---,0.00,VWS V14.01,2013-01-21 13:09:00,
2013-01-21 08:14:00,3.2,-12.1,0.00,ENE,74,0.0,0.0,48,0.00,,---,0.00,VWS V14.01,2013-01-21 13:14:00,
2013-01-21 08:19:00,3.7,-11.6,0.00,ENE,74,0.0,0.0,48,0.00,,---,0.00,VWS V14.01,2013-01-21 13:19:00,
2013-01-21 08:24:00,4.1,-11.2,0.00,ENE,74,0.0,0.0,48,0.00,,---,0.00,VWS V14.01,2013-01-21 13:24:00,
2013-01-21 08:29:00,4.5,-10.9,0.00,ENE,74,0.0,0.0,48,0.00,,---,0.00,VWS V14.01,2013-01-21 13:29:00,
2013-01-21 08:34:00,5.0,-10.4,0.00,ENE,74,0.0,0.0,48,0.00,,---,0.00,VWS V14.01,2013-01-21 13:34:00,
2013-01-21 08:39:00,5.4,-10.1,0.00,ENE,74,0.0,0.0,48,0.00,,---,0.00,VWS V14.01,2013-01-21 13:39:00,
2013-01-21 08:44:00,5.4,-10.1,0.00,ENE,74,0.0,0.0,48,0.00,,---,0.00,VWS V14.01,2013-01-21 13:44:00,
2013-01-21 08:49:00,5.5,-9.9,0.00,ENE,74,0.0,0.0,48,0.00,,---,0.00,VWS V14.01,2013-01-21 13:49:00,
2013-01-21 08:54:00,5.9,-9.6,0.00,ENE,74,0.0,0.0,48,0.00,,---,0.00,VWS V14.01,2013-01-21 13:54:00,
2013-01-21 08:59:00,6.1,-9.4,0.00,ENE,74,0.0,0.0,48,0.00,,---,0.00,VWS V14.01,2013-01-21 13:59:00,
2013-01-21 09:04:00,6.3,-9.2,0.00,ENE,74,0.0,0.0,48,0.00,,---,0.00,VWS V14.01,2013-01-21 14:04:00,
2013-01-21 09:09:00,6.8,-8.7,0.00,ENE,74,0.0,0.0,48,0.00,,---,0.00,VWS V14.01,2013-01-21 14:09:00,
2013-01-21 09:14:00,7.2,-8.4,0.00,ENE,74,0.0,0.0,48,0.00,,---,0.00,VWS V14.01,2013-01-21 14:14:00,
2013-01-21 09:19:00,7.3,-8.2,0.00,ENE,74,0.0,0.0,48,0.00,,---,0.00,VWS V14.01,2013-01-21 14:19:00,
2013-01-21 09:24:00,7.7,-7.9,0.00,ENE,74,0.0,0.0,48,0.00,,---,0.00,VWS V14.01,2013-01-21 14:24:00,
2013-01-21 09:29:00,7.9,-7.7,0.00,ENE,74,0.0,0.0,48,0.00,,---,0.00,VWS V14.01,2013-01-21 14:29:00,
2013-01-21 09:34:00,8.2,-7.4,0.00,ENE,74,0.0,0.0,48,0.00,,---,0.00,VWS V14.01,2013-01-21 14:34:00,
2013-01-21 09:39:00,8.4,-7.2,0.00,ENE,74,0.0,0.0,48,0.00,,---,0.00,VWS V14.01,2013-01-21 14:39:00,
2013-01-21 09:44:00,8.8,-6.9,0.00,ENE,74,0.0,0.0,48,0.00,,---,0.00,VWS V14.01,2013-01-21 14:44:00,
2013-01-21 09:49:00,9.0,-6.7,0.00,ENE,74,0.0,0.0,48,0.00,,---,0.00,VWS V14.01,2013-01-21 14:49:00,
2013-01-21 09:54:00,9.1,-6.6,0.00,ENE,74,0.0,0.0,48,0.00,,---,0.00,VWS V14.01,2013-01-21 14:54:00,
2013-01-21 09:59:00,9.5,-6.2,0.00,ENE,74,0.0,0.0,48,0.00,,---,0.00,VWS V14.01,2013-01-21 14:59:00,
2013-01-21 10:04:00,9.7,-6.1,0.00,ENE,74,0.0,0.0,48,0.00,,---,0.00,VWS V14.01,2013-01-21 15:04:00,
2013-01-21 10:09:00,9.7,-6.1,0.00,ENE,74,0.0,0.0,48,0.00,,---,0.00,VWS V14.01,2013-01-21 15:09:00,
2013-01-21 10:14:00,10.0,-5.7,0.00,ENE,74,0.0,0.0,48,0.00,,---,0.00,VWS V14.01,2013-01-21 15:14:00,
2013-01-21 10:19:00,10.4,-5.4,0.00,ENE,74,0.0,0.0,48,0.00,,---,0.00,VWS V14.01,2013-01-21 15:19:00,
2013-01-21 10:24:00,10.9,-4.9,0.00,ENE,74,0.0,0.0,48,0.00,,---,0.00,VWS V14.01,2013-01-21 15:24:00,
2013-01-21 10:29:00,11.1,-4.7,0.00,ENE,74,0.0,0.0,48,0.00,,---,0.00,VWS V14.01,2013-01-21 15:29:00,
2013-01-21 10:34:00,11.8,-4.1,0.00,ENE,74,0.0,0.0,48,0.00,,---,0.00,VWS V14.01,2013-01-21 15:34:00,
2013-01-21 10:39:00,12.6,-3.4,0.00,ENE,74,0.0,0.0,48,0.00,,---,0.00,VWS V14.01,2013-01-21 15:39:00,
2013-01-21 10:44:00,12.2,-3.7,0.00,SE,135,4.9,4.9,48,0.00,,---,0.00,VWS V14.01,2013-01-21 15:44:00,
2013-01-21 10:49:00,12.2,-3.7,0.00,SE,135,4.9,4.9,48,0.00,,---,0.00,VWS V14.01,2013-01-21 15:49:00,
2013-01-21 10:54:00,12.2,-3.7,0.00,South,181,3.1,3.1,48,0.00,,---,0.00,VWS V14.01,2013-01-21 15:54:00,
2013-01-21 10:59:00,12.2,-3.7,0.00,SW,226,0.0,0.0,48,0.00,,---,0.00,VWS V14.01,2013-01-21 15:59:00,
2013-01-21 11:04:00,13.1,-2.9,0.00,SW,226,0.0,0.0,48,0.00,,---,0.00,VWS V14.01,2013-01-21 16:04:00,
2013-01-21 11:09:00,13.6,-2.4,0.00,South,178,2.7,2.7,48,0.00,,---,0.00,VWS V14.01,2013-01-21 16:09:00,
2013-01-21 11:14:00,13.6,-2.4,0.00,South,178,2.7,2.7,48,0.00,,---,0.00,VWS V14.01,2013-01-21 16:14:00,
2013-01-21 11:19:00,14.2,-5.2,0.00,South,178,2.7,2.7,41,0.00,,---,0.00,VWS V14.01,2013-01-21 16:19:00,
2013-01-21 11:24:00,13.6,-5.7,0.00,South,178,2.7,2.7,41,0.00,,---,0.00,VWS V14.01,2013-01-21 16:24:00,
2013-01-21 11:29:00,13.8,-5.5,0.00,SE,127,2.7,3.1,41,0.00,,---,0.00,VWS V14.01,2013-01-21 16:29:00,
2013-01-21 11:34:00,14.2,-5.2,0.00,East,81,0.0,0.0,41,0.00,,---,0.00,VWS V14.01,2013-01-21 16:34:00,
2013-01-21 11:39:00,13.8,-5.5,0.00,NNE,15,0.0,0.0,41,0.00,,---,0.00,VWS V14.01,2013-01-21 16:39:00,
2013-01-21 11:44:00,14.0,-5.3,0.00,South,190,2.2,2.2,41,0.00,,---,0.00,VWS V14.01,2013-01-21 16:44:00,
2013-01-21 11:49:00,14.4,-4.5,0.00,ESE,104,0.0,0.0,42,0.00,,---,0.00,VWS V14.01,2013-01-21 16:49:00,
2013-01-21 11:54:00,15.1,-4.4,0.00,SE,131,3.1,3.1,41,0.00,,---,0.00,VWS V14.01,2013-01-21 16:54:00,
2013-01-21 11:59:00,14.9,-4.5,0.00,ESE,110,3.1,3.1,41,0.00,,---,0.00,VWS V14.01,2013-01-21 16:59:00,
2013-01-21 12:04:00,15.3,-4.2,0.00,SE,142,2.2,2.2,41,0.00,,---,0.00,VWS V14.01,2013-01-21 17:04:00,
2013-01-21 12:09:00,15.6,-3.9,0.00,NNE,15,0.0,0.0,41,0.00,,---,0.00,VWS V14.01,2013-01-21 17:09:00,
2013-01-21 12:14:00,17.1,-3.1,0.00,ESE,106,3.6,3.6,40,0.00,,---,0.00,VWS V14.01,2013-01-21 17:14:00,
2013-01-21 12:19:00,16.0,-4.1,0.00,ESE,106,3.6,3.6,40,0.00,,---,0.00,VWS V14.01,2013-01-21 17:19:00,
2013-01-21 12:24:00,15.3,-4.7,0.00,WSW,243,4.0,4.0,40,0.00,,---,0.00,VWS V14.01,2013-01-21 17:24:00,
2013-01-21 12:29:00,14.9,-5.1,0.00,WSW,243,4.0,4.0,40,0.00,,---,0.00,VWS V14.01,2013-01-21 17:29:00,
2013-01-21 12:34:00,14.4,-5.5,0.00,SSE,149,0.0,0.0,40,0.00,,---,0.00,VWS V14.01,2013-01-21 17:34:00,
2013-01-21 12:39:00,14.4,-5.5,0.00,SSE,149,0.0,0.0,40,0.00,,---,0.00,VWS V14.01,2013-01-21 17:39:00,
2013-01-21 12:44:00,14.5,-5.4,0.00,SE,129,3.1,3.1,40,0.00,,---,0.00,VWS V14.01,2013-01-21 17:44:00,
2013-01-21 12:49:00,14.2,-5.7,0.00,ESE,123,2.2,2.2,40,0.00,,---,0.00,VWS V14.01,2013-01-21 17:49:00,
2013-01-21 12:54:00,14.2,-5.2,0.00,ESE,123,2.2,2.2,41,0.00,,---,0.00,VWS V14.01,2013-01-21 17:54:00,
2013-01-21 12:59:00,14.2,-5.2,0.00,West,278,2.2,2.2,41,0.00,,---,0.00,VWS V14.01,2013-01-21 17:59:00,
2013-01-21 13:04:00,14.2,-5.2,0.00,West,278,2.2,2.2,41,0.00,,---,0.00,VWS V14.01,2013-01-21 18:04:00,
2013-01-21 13:09:00,14.0,-5.3,0.00,West,278,2.2,2.2,41,0.00,,---,0.00,VWS V14.01,2013-01-21 18:09:00,
2013-01-21 13:14:00,13.8,-5.5,0.00,West,278,2.2,2.2,41,0.00,,---,0.00,VWS V14.01,2013-01-21 18:14:00,
2013-01-21 13:19:00,14.2,-5.2,0.00,ESE,102,0.0,0.0,41,0.00,,---,0.00,VWS V14.01,2013-01-21 18:19:00,
2013-01-21 13:24:00,14.4,-5.0,0.00,East,101,0.0,0.0,41,0.00,,---,0.00,VWS V14.01,2013-01-21 18:24:00,
2013-01-21 13:29:00,14.2,-4.7,0.00,NNE,33,0.0,0.0,42,0.00,,---,0.00,VWS V14.01,2013-01-21 18:29:00,
2013-01-21 13:34:00,14.4,-4.5,0.00,SSW,213,0.0,0.0,42,0.00,,---,0.00,VWS V14.01,2013-01-21 18:34:00,
2013-01-21 13:39:00,14.5,-4.4,0.00,SSE,158,0.0,0.0,42,0.00,,---,0.00,VWS V14.01,2013-01-21 18:39:00,
2013-01-21 13:44:00,14.7,-3.7,0.00,SSE,158,0.0,0.0,43,0.00,,---,0.00,VWS V14.01,2013-01-21 18:44:00,
2013-01-21 13:49:00,14.4,-4.5,0.00,SSE,162,0.0,0.0,42,0.00,,---,0.00,VWS V14.01,2013-01-21 18:49:00,
2013-01-21 13:54:00,14.5,-4.4,0.00,SE,138,0.0,0.0,42,0.00,,---,0.00,VWS V14.01,2013-01-21 18:54:00,
2013-01-21 13:59:00,14.5,-3.9,0.00,SE,130,5.4,5.4,43,0.00,,---,0.00,VWS V14.01,2013-01-21 18:59:00,
2013-01-21 14:04:00,14.5,-3.4,0.00,South,179,0.0,0.0,44,0.00,,---,0.00,VWS V14.01,2013-01-21 19:04:00,
2013-01-21 14:09:00,15.1,-2.9,0.00,South,179,0.0,0.0,44,0.00,,---,0.00,VWS V14.01,2013-01-21 19:09:00,
2013-01-21 14:14:00,15.3,-2.7,0.00,NW,318,0.0,0.0,44,0.00,,---,0.00,VWS V14.01,2013-01-21 19:14:00,
2013-01-21 14:19:00,14.5,-3.4,0.00,SSW,208,0.0,0.0,44,0.00,,---,0.00,VWS V14.01,2013-01-21 19:19:00,
2013-01-21 14:24:00,14.7,-3.2,0.00,NNE,32,0.0,0.0,44,0.00,,---,0.00,VWS V14.01,2013-01-21 19:24:00,
2013-01-21 14:29:00,14.9,-3.1,0.00,NNE,32,0.0,0.0,44,0.00,,---,0.00,VWS V14.01,2013-01-21 19:29:00,
2013-01-21 14:34:00,15.3,-2.7,0.00,NNE,32,0.0,0.0,44,0.00,,---,0.00,VWS V14.01,2013-01-21 19:34:00,
2013-01-21 14:39:00,15.1,-2.9,0.00,NNE,32,0.0,0.0,44,0.00,,---,0.00,VWS V14.01,2013-01-21 19:39:00,
2013-01-21 14:44:00,14.4,-3.6,0.00,NNE,32,0.0,0.0,44,0.00,,---,0.00,VWS V14.01,2013-01-21 19:44:00,
2013-01-21 14:49:00,14.9,-3.1,0.00,NNE,32,0.0,0.0,44,0.00,,---,0.00,VWS V14.01,2013-01-21 19:49:00,
2013-01-21 14:54:00,15.4,-2.6,0.00,NNE,32,0.0,0.0,44,0.00,,---,0.00,VWS V14.01,2013-01-21 19:54:00,
2013-01-21 14:59:00,15.6,-2.4,0.00,NNE,20,0.0,0.0,44,0.00,,---,0.00,VWS V14.01,2013-01-21 19:59:00,
2013-01-21 15:04:00,15.6,-2.4,0.00,NNE,20,0.0,0.0,44,0.00,,---,0.00,VWS V14.01,2013-01-21 20:04:00,
2013-01-21 15:09:00,15.8,-2.2,0.00,NNE,20,0.0,0.0,44,0.00,,---,0.00,VWS V14.01,2013-01-21 20:09:00,
2013-01-21 15:14:00,15.6,-2.4,0.00,NNE,20,0.0,0.0,44,0.00,,---,0.00,VWS V14.01,2013-01-21 20:14:00,
2013-01-21 15:19:00,15.6,-2.4,0.00,NNE,20,0.0,0.0,44,0.00,,---,0.00,VWS V14.01,2013-01-21 20:19:00,
2013-01-21 15:24:00,15.4,-2.6,0.00,NNE,20,0.0,0.0,44,0.00,,---,0.00,VWS V14.01,2013-01-21 20:24:00,
2013-01-21 15:29:00,15.4,-2.1,0.00,NNE,20,0.0,0.0,45,0.00,,---,0.00,VWS V14.01,2013-01-21 20:29:00,
2013-01-21 15:34:00,15.3,-2.3,0.00,NNE,20,0.0,0.0,45,0.00,,---,0.00,VWS V14.01,2013-01-21 20:34:00,
2013-01-21 15:39:00,15.3,-2.3,0.00,NNE,20,0.0,0.0,45,0.00,,---,0.00,VWS V14.01,2013-01-21 20:39:00,
2013-01-21 15:44:00,15.1,-2.4,0.00,NNE,20,0.0,0.0,45,0.00,,---,0.00,VWS V14.01,2013-01-21 20:44:00,
2013-01-21 15:49:00,15.1,-2.4,0.00,NNE,20,0.0,0.0,45,0.00,,---,0.00,VWS V14.01,2013-01-21 20:49:00,
2013-01-21 15:54:00,15.1,-2.4,0.00,NNE,20,0.0,0.0,45,0.00,,---,0.00,VWS V14.01,2013-01-21 20:54:00,
2013-01-21 15:59:00,15.1,-2.4,0.00,NNE,20,0.0,0.0,45,0.00,,---,0.00,VWS V14.01,2013-01-21 20:59:00,
2013-01-21 16:04:00,14.9,-2.6,0.00,NNE,20,0.0,0.0,45,0.00,,---,0.00,VWS V14.01,2013-01-21 21:04:00,
2013-01-21 16:09:00,14.9,-2.6,0.00,NNE,20,0.0,0.0,45,0.00,,---,0.00,VWS V14.01,2013-01-21 21:09:00,
2013-01-21 16:14:00,14.5,-2.9,0.00,NNE,20,0.0,0.0,45,0.00,,---,0.00,VWS V14.01,2013-01-21 21:14:00,
2013-01-21 16:19:00,14.5,-2.9,0.00,NNE,20,0.0,0.0,45,0.00,,---,0.00,VWS V14.01,2013-01-21 21:19:00,
2013-01-21 16:24:00,14.9,-2.1,0.00,NNE,20,0.0,0.0,46,0.00,,---,0.00,VWS V14.01,2013-01-21 21:24:00,
2013-01-21 16:29:00,14.7,-2.3,0.00,NNE,20,0.0,0.0,46,0.00,,---,0.00,VWS V14.01,2013-01-21 21:29:00,
2013-01-21 16:34:00,14.5,-2.5,0.00,NNE,20,0.0,0.0,46,0.00,,---,0.00,VWS V14.01,2013-01-21 21:34:00,
2013-01-21 16:39:00,14.5,-2.0,0.00,NNE,20,0.0,0.0,47,0.00,,---,0.00,VWS V14.01,2013-01-21 21:39:00,
2013-01-21 16:44:00,14.7,-1.8,0.00,NNE,20,0.0,0.0,47,0.00,,---,0.00,VWS V14.01,2013-01-21 21:44:00,
2013-01-21 16:49:00,14.5,-2.0,0.00,NNE,20,0.0,0.0,47,0.00,,---,0.00,VWS V14.01,2013-01-21 21:49:00,
2013-01-21 16:54:00,14.4,-2.2,0.00,NNE,20,0.0,0.0,47,0.00,,---,0.00,VWS V14.01,2013-01-21 21:54:00,
2013-01-21 16:59:00,14.2,-2.3,0.00,NNE,20,0.0,0.0,47,0.00,,---,0.00,VWS V14.01,2013-01-21 21:59:00,
2013-01-21 17:04:00,14.2,-1.9,0.00,NNE,20,0.0,0.0,48,0.00,,---,0.00,VWS V14.01,2013-01-21 22:04:00,
2013-01-21 17:09:00,13.8,-2.2,0.00,NNE,20,0.0,0.0,48,0.00,,---,0.00,VWS V14.01,2013-01-21 22:09:00,
2013-01-21 17:14:00,13.6,-2.4,0.00,NNE,20,0.0,0.0,48,0.00,,---,0.00,VWS V14.01,2013-01-21 22:14:00,
2013-01-21 17:19:00,13.5,-2.6,0.00,NNE,20,0.0,0.0,48,0.00,,---,0.00,VWS V14.01,2013-01-21 22:19:00,
2013-01-21 17:24:00,13.3,-2.7,0.00,NNE,20,0.0,0.0,48,0.00,,---,0.00,VWS V14.01,2013-01-21 22:24:00,
2013-01-21 17:29:00,13.1,-2.9,0.00,NNE,20,0.0,0.0,48,0.00,,---,0.00,VWS V14.01,2013-01-21 22:29:00,
2013-01-21 17:34:00,12.9,-3.1,0.00,SSE,168,0.0,0.0,48,0.00,,---,0.00,VWS V14.01,2013-01-21 22:34:00,
2013-01-21 17:39:00,12.9,-3.1,0.00,SSE,168,0.0,0.0,48,0.00,,---,0.00,VWS V14.01,2013-01-21 22:39:00,
2013-01-21 17:44:00,12.9,-3.1,0.00,SSE,168,0.0,0.0,48,0.00,,---,0.00,VWS V14.01,2013-01-21 22:44:00,
2013-01-21 17:49:00,12.9,-3.1,0.00,SSE,168,0.0,0.0,48,0.00,,---,0.00,VWS V14.01,2013-01-21 22:49:00,
2013-01-21 17:54:00,12.9,-3.1,0.00,SSE,168,0.0,0.0,48,0.00,,---,0.00,VWS V14.01,2013-01-21 22:54:00,
2013-01-21 17:59:00,12.9,-3.1,0.00,SSE,168,0.0,0.0,48,0.00,,---,0.00,VWS V14.01,2013-01-21 22:59:00,
2013-01-21 18:04:00,12.9,-3.1,0.00,SSE,168,0.0,0.0,48,0.00,,---,0.00,VWS V14.01,2013-01-21 23:04:00,
2013-01-21 18:09:00,12.7,-3.2,0.00,SSE,168,0.0,0.0,48,0.00,,---,0.00,VWS V14.01,2013-01-21 23:09:00,
2013-01-21 18:14:00,12.6,-3.4,0.00,South,169,0.0,0.0,48,0.00,,---,0.00,VWS V14.01,2013-01-21 23:14:00,
2013-01-21 18:19:00,12.6,-3.4,0.00,South,169,0.0,0.0,48,0.00,,---,0.00,VWS V14.01,2013-01-21 23:19:00,
2013-01-21 18:24:00,12.4,-3.6,0.00,SSE,168,0.0,0.0,48,0.00,,---,0.00,VWS V14.01,2013-01-21 23:24:00,
2013-01-21 18:29:00,12.2,-3.7,0.00,SSE,168,0.0,0.0,48,0.00,,---,0.00,VWS V14.01,2013-01-21 23:29:00,
2013-01-21 18:34:00,12.2,-3.7,0.00,SSE,168,0.0,0.0,48,0.00,,---,0.00,VWS V14.01,2013-01-21 23:34:00,
2013-01-21 18:39:00,12.2,-3.7,0.00,SSE,168,0.0,0.0,48,0.00,,---,0.00,VWS V14.01,2013-01-21 23:39:00,
2013-01-21 18:44:00,12.2,-3.7,0.00,SSE,168,0.0,0.0,48,0.00,,---,0.00,VWS V14.01,2013-01-21 23:44:00,
2013-01-21 18:49:00,12.2,-3.7,0.00,SSE,168,0.0,0.0,48,0.00,,---,0.00,VWS V14.01,2013-01-21 23:49:00,
2013-01-21 18:54:00,12.2,-3.7,0.00,SSE,168,0.0,0.0,48,0.00,,---,0.00,VWS V14.01,2013-01-21 23:54:00,
2013-01-21 18:59:00,12.0,-3.9,0.00,SSE,168,0.0,0.0,48,0.00,,---,0.00,VWS V14.01,2013-01-21 23:59:00,
2013-01-21 19:04:00,11.8,-4.1,0.00,SSE,168,0.0,0.0,48,0.00,,---,0.00,VWS V14.01,2013-01-22 00:04:00,
2013-01-21 19:09:00,11.7,-4.2,0.00,SSE,168,0.0,0.0,48,0.00,,---,0.00,VWS V14.01,2013-01-22 00:09:00,
2013-01-21 19:14:00,11.7,-4.2,0.00,SSE,168,0.0,0.0,48,0.00,,---,0.00,VWS V14.01,2013-01-22 00:14:00,
2013-01-21 19:19:00,11.7,-4.2,0.00,SSE,168,0.0,0.0,48,0.00,,---,0.00,VWS V14.01,2013-01-22 00:19:00,
2013-01-21 19:24:00,11.5,-4.4,0.00,SSE,168,0.0,0.0,48,0.00,,---,0.00,VWS V14.01,2013-01-22 00:24:00,
2013-01-21 19:29:00,11.5,-4.4,0.00,SSE,168,0.0,0.0,48,0.00,,---,0.00,VWS V14.01,2013-01-22 00:29:00,
2013-01-21 19:34:00,11.3,-4.6,0.00,SSE,168,0.0,0.0,48,0.00,,---,0.00,VWS V14.01,2013-01-22 00:34:00,
2013-01-21 19:39:00,11.3,-4.6,0.00,SSE,168,0.0,0.0,48,0.00,,---,0.00,VWS V14.01,2013-01-22 00:39:00,
2013-01-21 19:44:00,11.3,-4.6,0.00,South,169,0.0,0.0,48,0.00,,---,0.00,VWS V14.01,2013-01-22 00:44:00,
2013-01-21 19:49:00,11.1,-4.7,0.00,South,169,0.0,0.0,48,0.00,,---,0.00,VWS V14.01,2013-01-22 00:49:00,
2013-01-21 19:54:00,10.9,-4.9,0.00,SSE,168,0.0,0.0,48,0.00,,---,0.00,VWS V14.01,2013-01-22 00:54:00,
2013-01-21 19:59:00,10.8,-5.1,0.00,SSE,168,0.0,0.0,48,0.00,,---,0.00,VWS V14.01,2013-01-22 00:59:00,
2013-01-21 20:04:00,10.4,-5.4,0.00,SSE,168,0.0,0.0,48,0.00,,---,0.00,VWS V14.01,2013-01-22 01:04:00,
2013-01-21 20:09:00,10.4,-5.4,0.00,SSE,168,0.0,0.0,48,0.00,,---,0.00,VWS V14.01,2013-01-22 01:09:00,
2013-01-21 20:14:00,10.4,-5.4,0.00,SSE,168,0.0,0.0,48,0.00,,---,0.00,VWS V14.01,2013-01-22 01:14:00,
2013-01-21 20:19:00,10.2,-5.6,0.00,South,169,0.0,0.0,48,0.00,,---,0.00,VWS V14.01,2013-01-22 01:19:00,
2013-01-21 20:24:00,10.2,-5.6,0.00,SSE,168,0.0,0.0,48,0.00,,---,0.00,VWS V14.01,2013-01-22 01:24:00,
2013-01-21 20:29:00,10.0,-5.7,0.00,SSE,168,0.0,0.0,48,0.00,,---,0.00,VWS V14.01,2013-01-22 01:29:00,
2013-01-21 20:34:00,9.7,-6.1,0.00,SSE,168,0.0,0.0,48,0.00,,---,0.00,VWS V14.01,2013-01-22 01:34:00,
2013-01-21 20:39:00,9.5,-6.2,0.00,SSE,168,0.0,0.0,48,0.00,,---,0.00,VWS V14.01,2013-01-22 01:39:00,
2013-01-21 20:44:00,9.5,-6.2,0.00,SSE,168,0.0,0.0,48,0.00,,---,0.00,VWS V14.01,2013-01-22 01:44:00,
2013-01-21 20:49:00,9.3,-6.4,0.00,SSE,168,0.0,0.0,48,0.00,,---,0.00,VWS V14.01,2013-01-22 01:49:00,
2013-01-21 20:54:00,9.3,-6.4,0.00,SSE,168,0.0,0.0,48,0.00,,---,0.00,VWS V14.01,2013-01-22 01:54:00,
2013-01-21 20:59:00,9.3,-6.4,0.00,SSE,168,0.0,0.0,48,0.00,,---,0.00,VWS V14.01,2013-01-22 01:59:00,
2013-01-21 21:04:00,9.3,-6.4,0.00,SSE,168,0.0,0.0,48,0.00,,---,0.00,VWS V14.01,2013-01-22 02:04:00,
2013-01-21 21:09:00,9.3,-6.4,0.00,SSE,168,0.0,0.0,48,0.00,,---,0.00,VWS V14.01,2013-01-22 02:09:00,
2013-01-21 21:14:00,9.3,-6.4,0.00,SSE,168,0.0,0.0,48,0.00,,---,0.00,VWS V14.01,2013-01-22 02:14:00,
2013-01-21 21:19:00,9.1,-6.6,0.00,SSE,168,0.0,0.0,48,0.00,,---,0.00,VWS V14.01,2013-01-22 02:19:00,
2013-01-21 21:24:00,8.8,-6.9,0.00,SSE,168,0.0,0.0,48,0.00,,---,0.00,VWS V14.01,2013-01-22 02:24:00,
2013-01-21 21:29:00,8.8,-6.9,0.00,SSE,168,0.0,0.0,48,0.00,,---,0.00,VWS V14.01,2013-01-22 02:29:00,
2013-01-21 21:34:00,8.6,-7.1,0.00,SSE,168,0.0,0.0,48,0.00,,---,0.00,VWS V14.01,2013-01-22 02:34:00,
2013-01-21 21:39:00,8.6,-7.1,0.00,SSE,168,0.0,0.0,48,0.00,,---,0.00,VWS V14.01,2013-01-22 02:39:00,
2013-01-21 21:44:00,8.8,-6.9,0.00,SSE,168,0.0,0.0,48,0.00,,---,0.00,VWS V14.01,2013-01-22 02:44:00,
2013-01-21 21:49:00,8.6,-7.1,0.00,SSE,168,0.0,0.0,48,0.00,,---,0.00,VWS V14.01,2013-01-22 02:49:00,
2013-01-21 21:54:00,8.6,-7.1,0.00,SSE,168,0.0,0.0,48,0.00,,---,0.00,VWS V14.01,2013-01-22 02:54:00,
2013-01-21 21:59:00,8.4,-7.2,0.00,SSE,168,0.0,0.0,48,0.00,,---,0.00,VWS V14.01,2013-01-22 02:59:00,
2013-01-21 22:04:00,8.6,-7.1,0.00,SSE,168,0.0,0.0,48,0.00,,---,0.00,VWS V14.01,2013-01-22 03:04:00,
2013-01-21 22:09:00,8.6,-7.1,0.00,SSE,168,0.0,0.0,48,0.00,,---,0.00,VWS V14.01,2013-01-22 03:09:00,
2013-01-21 22:14:00,8.6,-7.1,0.00,SSE,168,0.0,0.0,48,0.00,,---,0.00,VWS V14.01,2013-01-22 03:14:00,
2013-01-21 22:19:00,8.6,-7.1,0.00,SSE,168,0.0,0.0,48,0.00,,---,0.00,VWS V14.01,2013-01-22 03:19:00,
2013-01-21 22:24:00,8.6,-7.1,0.00,SSE,168,0.0,0.0,48,0.00,,---,0.00,VWS V14.01,2013-01-22 03:24:00,
2013-01-21 22:29:00,8.8,-6.9,0.00,SSE,168,0.0,0.0,48,0.00,,---,0.00,VWS V14.01,2013-01-22 03:29:00,
2013-01-21 22:34:00,8.8,-6.9,0.00,SSE,168,0.0,0.0,48,0.00,,---,0.00,VWS V14.01,2013-01-22 03:34:00,
2013-01-21 22:39:00,8.8,-6.9,0.00,SSE,168,0.0,0.0,48,0.00,,---,0.00,VWS V14.01,2013-01-22 03:39:00,
2013-01-21 22:44:00,9.0,-6.7,0.00,SSE,168,0.0,0.0,48,0.00,,---,0.00,VWS V14.01,2013-01-22 03:44:00,
2013-01-21 22:49:00,8.8,-6.9,0.00,SSE,168,0.0,0.0,48,0.00,,---,0.00,VWS V14.01,2013-01-22 03:49:00,
2013-01-21 22:54:00,8.8,-6.9,0.00,SSE,168,0.0,0.0,48,0.00,,---,0.00,VWS V14.01,2013-01-22 03:54:00,
2013-01-21 22:59:00,9.0,-6.7,0.00,SSE,168,0.0,0.0,48,0.00,,---,0.00,VWS V14.01,2013-01-22 03:59:00,
2013-01-21 23:04:00,8.8,-6.9,0.00,SSE,168,0.0,0.0,48,0.00,,---,0.00,VWS V14.01,2013-01-22 04:04:00,
2013-01-21 23:09:00,8.8,-6.9,0.00,SSE,168,0.0,0.0,48,0.00,,---,0.00,VWS V14.01,2013-01-22 04:09:00,
2013-01-21 23:14:00,8.8,-6.9,0.00,SSE,168,0.0,0.0,48,0.00,,---,0.00,VWS V14.01,2013-01-22 04:14:00,
2013-01-21 23:19:00,8.6,-7.1,0.00,SSE,168,0.0,0.0,48,0.00,,---,0.00,VWS V14.01,2013-01-22 04:19:00,
2013-01-21 23:24:00,8.6,-7.1,0.00,SSE,168,0.0,0.0,48,0.00,,---,0.00,VWS V14.01,2013-01-22 04:24:00,
2013-01-21 23:29:00,8.4,-7.2,0.00,SSE,168,0.0,0.0,48,0.00,,---,0.00,VWS V14.01,2013-01-22 04:29:00,
2013-01-21 23:34:00,8.2,-7.4,0.00,SSE,168,0.0,0.0,48,0.00,,---,0.00,VWS V14.01,2013-01-22 04:34:00,
2013-01-21 23:39:00,8.2,-7.4,0.00,SSE,168,0.0,0.0,48,0.00,,---,0.00,VWS V14.01,2013-01-22 04:39:00,
2013-01-21 23:44:00,8.1,-7.6,0.00,SSE,168,0.0,0.0,48,0.00,,---,0.00,VWS V14.01,2013-01-22 04:44:00,
2013-01-21 23:49:00,8.1,-7.6,0.00,SSE,168,0.0,0.0,48,0.00,,---,0.00,VWS V14.01,2013-01-22 04:49:00,
2013-01-21 23:54:00,7.9,-7.7,0.00,SSE,168,0.0,0.0,48,0.00,,---,0.00,VWS V14.01,2013-01-22 04:54:00,
2013-01-21 23:59:00,7.9,-7.7,0.00,SSE,168,0.0,0.0,48,0.00,,---,0.00,VWS V14.01,2013-01-22 04:59:00,